Time;durP1;ratioP1;P1;durP2;ratioP2;P2;SDS_P1;SDS_P2;PMS_P1;PMS_P2;Temp;Humidity;BMP_temperature;BMP_pressure;BME280_temperature;BME280_humidity;BME280_pressure;Samples;Min_cycle;Max_cycle;Signal;HPM_P1;HPM_P2
2022/07/02 00:00:22;;;;;;;7.80;6.85;;;;;;;;;;1607253;30;22047;-59
2022/07/02 00:01:19;;;;;;;8.15;7.65;;;;;;;;;;1610807;30;21681;-60
2022/07/02 00:02:12;;;;;;;7.45;6.95;;;;;;;;;;1610029;30;22104;-61
2022/07/02 00:03:07;;;;;;;7.90;7.43;;;;;;;;;;1606194;30;21701;-58
2022/07/02 00:04:04;;;;;;;7.57;6.97;;;;;;;;;;1606221;30;22111;-58
2022/07/02 00:05:00;;;;;;;7.38;6.88;;;;;;;;;;1604315;30;21735;-60
2022/07/02 00:05:56;;;;;;;7.72;6.90;;;;;;;;;;1601283;30;21634;-59
2022/07/02 00:06:49;;;;;;;6.72;6.30;;;;;;;;;;1611871;30;22379;-59
2022/07/02 00:07:41;;;;;;;7.30;6.80;;;;;;;;;;1611653;30;21846;-58
2022/07/02 00:08:34;;;;;;;7.03;6.63;;;;;;;;;;1608421;30;22222;-59
2022/07/02 00:09:26;;;;;;;7.13;6.70;;;;;;;;;;1607414;30;22396;-59
2022/07/02 00:10:20;;;;;;;7.75;7.25;;;;;;;;;;1610732;30;22233;-59
2022/07/02 00:11:14;;;;;;;7.13;6.72;;;;;;;;;;1608086;30;21799;-60
2022/07/02 00:12:07;;;;;;;7.50;6.97;;;;;;;;;;1609141;30;21652;-59
2022/07/02 00:13:00;;;;;;;7.72;7.22;;;;;;;;;;1610968;30;22143;-60
2022/07/02 00:13:53;;;;;;;7.32;6.93;;;;;;;;;;1603268;30;21599;-60
2022/07/02 00:14:46;;;;;;;7.88;7.38;;;;;;;;;;1611155;30;21641;-60
2022/07/02 00:15:38;;;;;;;6.90;6.50;;;;;;;;;;1612800;30;21609;-60
2022/07/02 00:16:30;;;;;;;7.80;7.30;;;;;;;;;;1608258;30;21904;-61
2022/07/02 00:17:23;;;;;;;7.32;6.93;;;;;;;;;;1608573;30;21761;-58
2022/07/02 00:18:16;;;;;;;7.07;6.53;;;;;;;;;;1603478;30;22841;-58
2022/07/02 00:19:09;;;;;;;7.47;6.97;;;;;;;;;;1597386;30;21991;-59
2022/07/02 00:20:01;;;;;;;7.57;7.15;;;;;;;;;;1600197;30;22326;-58
2022/07/02 00:20:55;;;;;;;7.38;6.88;;;;;;;;;;1603640;30;21674;-60
2022/07/02 00:21:46;;;;;;;7.07;6.57;;;;;;;;;;1607438;30;21620;-59
2022/07/02 00:22:39;;;;;;;7.72;7.07;;;;;;;;;;1608647;30;22039;-59
2022/07/02 00:23:31;;;;;;;7.05;6.55;;;;;;;;;;1606432;30;21670;-60
2022/07/02 00:24:23;;;;;;;7.68;7.03;;;;;;;;;;1606019;30;21877;-60
2022/07/02 00:25:15;;;;;;;13.00;7.13;;;;;;;;;;1608603;30;21945;-60
2022/07/02 00:26:13;;;;;;;13.60;7.25;;;;;;;;;;1606522;30;21607;-59
2022/07/02 00:27:08;;;;;;;7.38;6.88;;;;;;;;;;1608954;30;22662;-59
2022/07/02 00:28:01;;;;;;;7.78;7.22;;;;;;;;;;1608566;30;21623;-60
2022/07/02 00:29:00;;;;;;;9.40;7.72;;;;;;;;;;1608681;30;22298;-58
2022/07/02 00:29:58;;;;;;;7.47;6.88;;;;;;;;;;1601851;30;21736;-57
2022/07/02 00:30:51;;;;;;;8.50;6.00;;;;;;;;;;1609808;30;21664;-59
2022/07/02 00:31:43;;;;;;;11.38;7.32;;;;;;;;;;1610809;30;21616;-58
2022/07/02 00:32:36;;;;;;;7.53;6.97;;;;;;;;;;1605368;30;22376;-59
2022/07/02 00:33:31;;;;;;;7.38;6.95;;;;;;;;;;1606577;30;21922;-59
2022/07/02 00:34:24;;;;;;;7.25;6.75;;;;;;;;;;1610746;30;22028;-59
2022/07/02 00:35:16;;;;;;;7.32;6.63;;;;;;;;;;1610228;30;22105;-58
2022/07/02 00:36:21;;;;;;;7.55;6.88;;;;;;;;;;1607919;30;21884;-60
2022/07/02 00:37:14;;;;;;;7.85;7.05;;;;;;;;;;1611064;30;21656;-58
2022/07/02 00:38:06;;;;;;;7.03;6.53;;;;;;;;;;1610078;30;21983;-59
2022/07/02 00:39:00;;;;;;;7.40;6.75;;;;;;;;;;1607892;30;22664;-60
2022/07/02 00:39:51;;;;;;;6.97;6.40;;;;;;;;;;1609939;30;22306;-59
2022/07/02 00:40:45;;;;;;;7.47;6.80;;;;;;;;;;1609580;30;22099;-59
2022/07/02 00:41:37;;;;;;;7.45;6.85;;;;;;;;;;1607930;30;22555;-60
2022/07/02 00:42:31;;;;;;;7.78;6.80;;;;;;;;;;1611876;30;21623;-60
2022/07/02 00:43:23;;;;;;;7.30;6.88;;;;;;;;;;1609759;30;21668;-59
2022/07/02 00:44:17;;;;;;;7.82;7.07;;;;;;;;;;1607057;30;23623;-59
2022/07/02 00:45:10;;;;;;;7.63;6.68;;;;;;;;;;1605634;30;21949;-60
2022/07/02 00:46:02;;;;;;;7.63;6.75;;;;;;;;;;1610159;30;21903;-59
2022/07/02 00:46:55;;;;;;;7.32;6.82;;;;;;;;;;1607296;30;21995;-60
2022/07/02 00:47:48;;;;;;;6.82;6.32;;;;;;;;;;1605960;30;22496;-61
2022/07/02 00:48:43;;;;;;;7.90;6.93;;;;;;;;;;1607102;30;22027;-58
2022/07/02 00:49:37;;;;;;;9.05;7.55;;;;;;;;;;1607420;30;21729;-60
2022/07/02 00:50:29;;;;;;;7.30;6.80;;;;;;;;;;1605746;30;21641;-58
2022/07/02 00:51:21;;;;;;;7.97;6.88;;;;;;;;;;1606221;30;21961;-59
2022/07/02 00:52:13;;;;;;;7.25;6.75;;;;;;;;;;1607781;30;21694;-59
2022/07/02 00:53:05;;;;;;;8.23;6.40;;;;;;;;;;1611806;30;22307;-59
2022/07/02 00:53:57;;;;;;;7.32;6.72;;;;;;;;;;1610232;30;21594;-60
2022/07/02 00:54:49;;;;;;;9.43;6.15;;;;;;;;;;1608006;30;21695;-59
2022/07/02 00:55:40;;;;;;;8.27;6.82;;;;;;;;;;1610857;30;21721;-59
2022/07/02 00:56:33;;;;;;;7.32;6.60;;;;;;;;;;1610750;30;21702;-58
2022/07/02 00:57:24;;;;;;;6.90;6.43;;;;;;;;;;1607601;30;22480;-58
2022/07/02 00:58:16;;;;;;;7.03;6.43;;;;;;;;;;1609929;30;22420;-59
2022/07/02 00:59:08;;;;;;;7.05;6.55;;;;;;;;;;1608288;30;21732;-59
2022/07/02 01:00:00;;;;;;;8.02;7.25;;;;;;;;;;1607990;30;21653;-59
2022/07/02 01:00:51;;;;;;;7.20;6.63;;;;;;;;;;1603999;30;21615;-59
2022/07/02 01:01:44;;;;;;;7.93;7.22;;;;;;;;;;1609928;30;21909;-61
2022/07/02 01:02:36;;;;;;;8.05;7.32;;;;;;;;;;1608119;30;21615;-59
2022/07/02 01:03:30;;;;;;;8.00;7.20;;;;;;;;;;1603207;30;21646;-59
2022/07/02 01:04:23;;;;;;;6.97;6.47;;;;;;;;;;1603383;30;21790;-59
2022/07/02 01:05:17;;;;;;;10.98;7.00;;;;;;;;;;1604660;30;21806;-59
2022/07/02 01:06:08;;;;;;;6.93;6.38;;;;;;;;;;1609605;30;21605;-59
2022/07/02 01:07:04;;;;;;;8.85;6.60;;;;;;;;;;1610987;30;21762;-61
2022/07/02 01:10:17;;;;;;;7.65;6.95;;;;;;;;;;1605766;30;21616;-59
2022/07/02 01:11:11;;;;;;;8.50;6.18;;;;;;;;;;1607954;30;21679;-59
2022/07/02 01:12:04;;;;;;;7.65;7.05;;;;;;;;;;1610310;30;21613;-59
2022/07/02 01:12:56;;;;;;;9.38;6.50;;;;;;;;;;1611864;30;21702;-59
2022/07/02 01:13:47;;;;;;;8.02;6.43;;;;;;;;;;1610329;30;22298;-60
2022/07/02 01:14:40;;;;;;;6.65;5.82;;;;;;;;;;1611508;30;21657;-59
2022/07/02 01:15:32;;;;;;;8.38;6.70;;;;;;;;;;1614863;30;21651;-59
2022/07/02 01:16:24;;;;;;;7.25;6.75;;;;;;;;;;1606196;30;21608;-59
2022/07/02 01:17:15;;;;;;;6.75;6.25;;;;;;;;;;1607129;30;22065;-58
2022/07/02 01:18:08;;;;;;;7.82;6.10;;;;;;;;;;1608739;30;21942;-60
2022/07/02 01:18:59;;;;;;;6.60;5.97;;;;;;;;;;1608945;30;21626;-60
2022/07/02 01:19:53;;;;;;;6.97;6.28;;;;;;;;;;1609542;30;21747;-60
2022/07/02 01:20:44;;;;;;;7.10;6.60;;;;;;;;;;1608942;30;22646;-60
2022/07/02 01:21:38;;;;;;;6.13;5.72;;;;;;;;;;1612650;30;21602;-60
2022/07/02 01:22:35;;;;;;;7.10;6.43;;;;;;;;;;1605553;30;21697;-59
2022/07/02 01:23:27;;;;;;;7.40;6.72;;;;;;;;;;1605685;30;22546;-58
2022/07/02 01:24:24;;;;;;;6.70;5.95;;;;;;;;;;1607897;30;21953;-60
2022/07/02 01:25:16;;;;;;;7.13;6.53;;;;;;;;;;1610551;30;21597;-60
2022/07/02 01:26:07;;;;;;;6.70;6.05;;;;;;;;;;1607695;30;21673;-59
2022/07/02 01:26:58;;;;;;;7.03;6.43;;;;;;;;;;1612787;30;21632;-60
2022/07/02 01:27:51;;;;;;;7.18;6.68;;;;;;;;;;1610755;30;22035;-60
2022/07/02 01:28:42;;;;;;;9.48;6.72;;;;;;;;;;1610213;30;21620;-60
2022/07/02 01:29:33;;;;;;;7.10;6.40;;;;;;;;;;1609282;30;21620;-59
2022/07/02 01:30:26;;;;;;;6.57;6.18;;;;;;;;;;1606917;30;21689;-58
2022/07/02 01:31:18;;;;;;;6.75;6.35;;;;;;;;;;1608284;30;21751;-60
2022/07/02 01:32:09;;;;;;;6.40;6.00;;;;;;;;;;1612545;30;22425;-59
2022/07/02 01:33:02;;;;;;;7.28;6.55;;;;;;;;;;1611835;30;22442;-58
2022/07/02 01:33:53;;;;;;;6.38;5.85;;;;;;;;;;1602286;30;22760;-58
2022/07/02 01:34:47;;;;;;;7.72;7.13;;;;;;;;;;1610730;30;21657;-59
2022/07/02 01:35:39;;;;;;;6.28;5.90;;;;;;;;;;1611298;30;21627;-58
2022/07/02 01:36:31;;;;;;;6.75;6.32;;;;;;;;;;1608733;30;22295;-58
2022/07/02 01:37:22;;;;;;;7.13;6.50;;;;;;;;;;1611019;30;21622;-58
2022/07/02 01:38:16;;;;;;;8.60;6.50;;;;;;;;;;1611811;30;22633;-60
2022/07/02 01:39:07;;;;;;;6.00;5.60;;;;;;;;;;1608537;30;21599;-59
2022/07/02 01:40:00;;;;;;;7.65;6.35;;;;;;;;;;1610739;30;22432;-59
2022/07/02 01:40:51;;;;;;;6.90;6.30;;;;;;;;;;1611795;30;21677;-58
2022/07/02 01:41:42;;;;;;;7.30;6.47;;;;;;;;;;1609206;30;22797;-60
2022/07/02 01:42:36;;;;;;;6.15;5.85;;;;;;;;;;1609974;30;22074;-59
2022/07/02 01:43:27;;;;;;;5.78;5.40;;;;;;;;;;1611962;30;21661;-59
2022/07/02 01:44:18;;;;;;;6.22;5.82;;;;;;;;;;1609476;30;22370;-60
2022/07/02 01:45:11;;;;;;;6.07;5.57;;;;;;;;;;1609874;30;21634;-59
2022/07/02 01:46:02;;;;;;;7.00;6.47;;;;;;;;;;1611507;30;21692;-59
2022/07/02 01:46:54;;;;;;;6.07;5.63;;;;;;;;;;1610814;30;21664;-59
2022/07/02 01:47:46;;;;;;;6.90;6.30;;;;;;;;;;1609360;30;21739;-59
2022/07/02 01:48:38;;;;;;;6.43;6.03;;;;;;;;;;1610920;30;21761;-62
2022/07/02 01:49:29;;;;;;;6.30;5.65;;;;;;;;;;1609280;30;21692;-59
2022/07/02 01:50:22;;;;;;;6.82;5.82;;;;;;;;;;1608431;30;21643;-59
2022/07/02 01:51:13;;;;;;;6.47;6.07;;;;;;;;;;1611579;30;22457;-59
2022/07/02 01:52:06;;;;;;;6.63;5.72;;;;;;;;;;1610639;30;21640;-59
2022/07/02 01:52:58;;;;;;;6.53;6.13;;;;;;;;;;1608760;30;21653;-59
2022/07/02 01:53:51;;;;;;;5.95;5.55;;;;;;;;;;1611730;30;21960;-59
2022/07/02 01:54:43;;;;;;;6.43;5.78;;;;;;;;;;1610679;30;22237;-58
2022/07/02 01:55:36;;;;;;;6.63;6.22;;;;;;;;;;1608635;30;21655;-58
2022/07/02 01:56:31;;;;;;;6.35;5.85;;;;;;;;;;1611663;30;22579;-59
2022/07/02 01:57:23;;;;;;;6.10;5.68;;;;;;;;;;1606894;30;22290;-59
2022/07/02 01:58:15;;;;;;;7.10;5.50;;;;;;;;;;1607809;30;21580;-59
2022/07/02 01:59:07;;;;;;;5.97;5.50;;;;;;;;;;1608199;30;22520;-59
2022/07/02 01:59:58;;;;;;;6.68;6.10;;;;;;;;;;1609477;30;22128;-59
2022/07/02 02:00:50;;;;;;;5.93;5.40;;;;;;;;;;1608230;30;22437;-59
2022/07/02 02:01:42;;;;;;;6.20;5.70;;;;;;;;;;1612183;30;21820;-59
2022/07/02 02:02:34;;;;;;;6.10;5.53;;;;;;;;;;1610756;30;22386;-60
2022/07/02 02:03:25;;;;;;;5.63;5.22;;;;;;;;;;1607864;30;21617;-59
2022/07/02 02:04:18;;;;;;;6.50;6.00;;;;;;;;;;1611964;30;22025;-59
2022/07/02 02:05:09;;;;;;;6.28;5.70;;;;;;;;;;1610577;30;22484;-59
2022/07/02 02:06:01;;;;;;;7.43;5.78;;;;;;;;;;1608799;30;22282;-59
2022/07/02 02:06:52;;;;;;;5.82;5.38;;;;;;;;;;1612423;30;21619;-60
2022/07/02 02:07:45;;;;;;;6.30;5.90;;;;;;;;;;1611646;30;21952;-59
2022/07/02 02:08:36;;;;;;;5.43;5.13;;;;;;;;;;1608964;30;22051;-59
2022/07/02 02:09:30;;;;;;;6.25;5.65;;;;;;;;;;1607775;30;22015;-58
2022/07/02 02:10:21;;;;;;;5.72;5.32;;;;;;;;;;1611124;30;22206;-59
2022/07/02 02:11:13;;;;;;;5.93;5.40;;;;;;;;;;1608551;30;22403;-60
2022/07/02 02:12:06;;;;;;;7.03;5.40;;;;;;;;;;1609904;30;21747;-60
2022/07/02 02:12:58;;;;;;;6.05;5.40;;;;;;;;;;1611557;30;22727;-59
2022/07/02 02:13:49;;;;;;;5.90;5.40;;;;;;;;;;1609710;30;21672;-59
2022/07/02 02:14:42;;;;;;;7.65;5.35;;;;;;;;;;1611501;30;21719;-60
2022/07/02 02:15:33;;;;;;;6.07;5.68;;;;;;;;;;1607519;30;21758;-61
2022/07/02 02:16:26;;;;;;;6.07;5.57;;;;;;;;;;1600025;30;23552;-59
2022/07/02 02:17:17;;;;;;;13.13;5.97;;;;;;;;;;1604973;30;21848;-59
2022/07/02 02:18:09;;;;;;;5.45;4.95;;;;;;;;;;1607180;30;21625;-60
2022/07/02 02:19:01;;;;;;;6.20;5.80;;;;;;;;;;1609381;30;21609;-59
2022/07/02 02:19:53;;;;;;;5.93;5.53;;;;;;;;;;1608398;30;21997;-59
2022/07/02 02:20:44;;;;;;;6.63;6.22;;;;;;;;;;1611531;30;22646;-59
2022/07/02 02:21:36;;;;;;;5.55;5.18;;;;;;;;;;1610699;30;22342;-60
2022/07/02 02:22:27;;;;;;;5.65;5.25;;;;;;;;;;1607994;30;21629;-59
2022/07/02 02:23:20;;;;;;;5.50;5.20;;;;;;;;;;1610766;30;21764;-59
2022/07/02 02:24:11;;;;;;;7.70;5.40;;;;;;;;;;1606992;30;22695;-60
2022/07/02 02:25:06;;;;;;;6.32;5.93;;;;;;;;;;1608593;30;21608;-59
2022/07/02 02:25:57;;;;;;;5.53;5.13;;;;;;;;;;1612072;30;21598;-59
2022/07/02 02:26:49;;;;;;;5.70;5.30;;;;;;;;;;1610306;30;21583;-59
2022/07/02 02:27:40;;;;;;;6.07;5.68;;;;;;;;;;1608222;30;21625;-59
2022/07/02 02:28:32;;;;;;;5.90;4.97;;;;;;;;;;1610568;30;22309;-59
2022/07/02 02:29:24;;;;;;;5.70;5.30;;;;;;;;;;1606869;30;21619;-60
2022/07/02 02:30:16;;;;;;;6.28;5.40;;;;;;;;;;1607997;30;21820;-61
2022/07/02 02:31:07;;;;;;;6.32;5.80;;;;;;;;;;1612661;30;21616;-60
2022/07/02 02:31:59;;;;;;;6.13;5.13;;;;;;;;;;1610617;30;21956;-60
2022/07/02 02:32:51;;;;;;;12.25;5.90;;;;;;;;;;1606897;30;22472;-60
2022/07/02 02:33:43;;;;;;;6.45;5.32;;;;;;;;;;1612015;30;21664;-60
2022/07/02 02:34:34;;;;;;;5.78;5.38;;;;;;;;;;1610952;30;21642;-60
2022/07/02 02:35:26;;;;;;;5.97;5.40;;;;;;;;;;1608539;30;21746;-60
2022/07/02 02:36:18;;;;;;;5.88;5.35;;;;;;;;;;1610990;30;22069;-59
2022/07/02 02:37:10;;;;;;;5.88;5.38;;;;;;;;;;1611240;30;21605;-60
2022/07/02 02:38:01;;;;;;;5.40;5.00;;;;;;;;;;1611191;30;21723;-58
2022/07/02 02:38:54;;;;;;;5.93;5.38;;;;;;;;;;1608871;30;21769;-58
2022/07/02 02:39:45;;;;;;;5.80;5.35;;;;;;;;;;1610085;30;21598;-59
2022/07/02 02:40:39;;;;;;;5.80;5.30;;;;;;;;;;1611299;30;21656;-59
2022/07/02 02:41:30;;;;;;;6.63;5.25;;;;;;;;;;1608607;30;21648;-59
2022/07/02 02:42:22;;;;;;;6.15;5.65;;;;;;;;;;1610687;30;22106;-58
2022/07/02 02:43:13;;;;;;;4.97;4.68;;;;;;;;;;1610774;30;21610;-59
2022/07/02 02:44:06;;;;;;;5.90;5.47;;;;;;;;;;1608394;30;21601;-59
2022/07/02 02:44:57;;;;;;;5.90;5.43;;;;;;;;;;1611722;30;21657;-59
2022/07/02 02:45:49;;;;;;;7.57;4.82;;;;;;;;;;1611551;30;22321;-59
2022/07/02 02:46:40;;;;;;;6.70;6.05;;;;;;;;;;1608624;30;21830;-60
2022/07/02 02:47:33;;;;;;;5.43;5.05;;;;;;;;;;1610798;30;22483;-59
2022/07/02 02:48:24;;;;;;;5.97;5.43;;;;;;;;;;1609428;30;21648;-61
2022/07/02 02:49:16;;;;;;;6.03;5.47;;;;;;;;;;1608420;30;22498;-60
2022/07/02 02:50:08;;;;;;;6.85;6.20;;;;;;;;;;1610103;30;21862;-60
2022/07/02 02:51:00;;;;;;;5.32;5.03;;;;;;;;;;1611296;30;22399;-59
2022/07/02 02:51:51;;;;;;;6.82;5.28;;;;;;;;;;1603905;30;22450;-60
2022/07/02 02:52:44;;;;;;;5.72;5.30;;;;;;;;;;1608189;30;21613;-62
2022/07/02 02:53:35;;;;;;;5.40;4.93;;;;;;;;;;1611160;30;22950;-60
2022/07/02 02:54:27;;;;;;;5.53;5.03;;;;;;;;;;1607806;30;22122;-59
2022/07/02 02:55:18;;;;;;;8.35;4.90;;;;;;;;;;1608335;30;22322;-59
2022/07/02 02:56:13;;;;;;;4.90;4.50;;;;;;;;;;1606873;30;21715;-59
2022/07/02 02:57:05;;;;;;;5.68;5.18;;;;;;;;;;1607821;30;21689;-60
2022/07/02 02:57:57;;;;;;;10.27;5.20;;;;;;;;;;1602618;30;22407;-60
2022/07/02 02:58:48;;;;;;;5.18;4.78;;;;;;;;;;1609278;30;21895;-59
2022/07/02 02:59:41;;;;;;;6.22;5.65;;;;;;;;;;1607762;30;21909;-59
2022/07/02 03:00:32;;;;;;;5.75;5.45;;;;;;;;;;1609239;30;21594;-59
2022/07/02 03:01:25;;;;;;;5.40;4.90;;;;;;;;;;1606368;30;21609;-60
2022/07/02 03:02:16;;;;;;;5.80;5.40;;;;;;;;;;1606884;30;22491;-60
2022/07/02 03:03:08;;;;;;;9.32;5.30;;;;;;;;;;1608473;30;21817;-59
2022/07/02 03:03:59;;;;;;;5.43;5.00;;;;;;;;;;1611731;30;21716;-59
2022/07/02 03:04:52;;;;;;;5.35;5.05;;;;;;;;;;1610109;30;22340;-59
2022/07/02 03:05:43;;;;;;;5.40;5.00;;;;;;;;;;1608204;30;22655;-58
2022/07/02 03:06:35;;;;;;;5.68;5.18;;;;;;;;;;1612155;30;22160;-60
2022/07/02 03:07:26;;;;;;;5.75;4.75;;;;;;;;;;1611346;30;21627;-59
2022/07/02 03:08:18;;;;;;;6.63;5.25;;;;;;;;;;1609162;30;21951;-59
2022/07/02 03:09:10;;;;;;;5.60;5.20;;;;;;;;;;1604693;30;21618;-59
2022/07/02 03:10:02;;;;;;;4.85;4.55;;;;;;;;;;1605220;30;21828;-59
2022/07/02 03:10:54;;;;;;;4.78;4.47;;;;;;;;;;1602302;30;21745;-59
2022/07/02 03:11:47;;;;;;;5.65;5.25;;;;;;;;;;1607642;30;21771;-58
2022/07/02 03:12:39;;;;;;;4.82;4.53;;;;;;;;;;1611294;30;21632;-58
2022/07/02 03:13:31;;;;;;;5.35;4.93;;;;;;;;;;1606824;30;21677;-59
2022/07/02 03:14:22;;;;;;;5.57;5.18;;;;;;;;;;1607668;30;22654;-60
2022/07/02 03:15:15;;;;;;;5.22;4.82;;;;;;;;;;1617740;30;22014;-60
2022/07/02 03:16:07;;;;;;;5.65;4.78;;;;;;;;;;1606421;30;21610;-60
2022/07/02 03:16:59;;;;;;;6.57;5.93;;;;;;;;;;1607538;30;21946;-59
2022/07/02 03:17:50;;;;;;;4.72;4.45;;;;;;;;;;1612166;30;21675;-60
2022/07/02 03:18:42;;;;;;;5.70;5.30;;;;;;;;;;1608484;30;21800;-60
2022/07/02 03:19:34;;;;;;;6.68;4.60;;;;;;;;;;1607758;30;22471;-59
2022/07/02 03:20:26;;;;;;;5.05;4.75;;;;;;;;;;1605661;30;21606;-59
2022/07/02 03:21:17;;;;;;;5.13;4.63;;;;;;;;;;1606836;30;21646;-59
2022/07/02 03:22:09;;;;;;;5.40;5.00;;;;;;;;;;1607566;30;21597;-59
2022/07/02 03:23:01;;;;;;;5.57;5.18;;;;;;;;;;1611552;30;21647;-59
2022/07/02 03:23:53;;;;;;;5.57;4.68;;;;;;;;;;1611265;30;21631;-59
2022/07/02 03:24:44;;;;;;;5.28;4.97;;;;;;;;;;1603330;30;21683;-59
2022/07/02 03:25:36;;;;;;;4.88;4.53;;;;;;;;;;1608601;30;21618;-58
2022/07/02 03:26:28;;;;;;;5.68;5.18;;;;;;;;;;1610950;30;21680;-59
2022/07/02 03:27:21;;;;;;;5.45;4.88;;;;;;;;;;1607430;30;21591;-60
2022/07/02 03:28:12;;;;;;;4.70;4.40;;;;;;;;;;1610269;30;22314;-57
2022/07/02 03:29:04;;;;;;;5.07;4.78;;;;;;;;;;1608164;30;22006;-59
2022/07/02 03:29:56;;;;;;;5.90;5.30;;;;;;;;;;1608463;30;21610;-59
2022/07/02 03:30:48;;;;;;;6.00;4.80;;;;;;;;;;1610784;30;22997;-59
2022/07/02 03:31:39;;;;;;;5.38;5.05;;;;;;;;;;1611184;30;21623;-59
2022/07/02 03:32:31;;;;;;;4.68;4.38;;;;;;;;;;1609480;30;21640;-61
2022/07/02 03:33:23;;;;;;;5.20;4.80;;;;;;;;;;1608846;30;21676;-60
2022/07/02 03:34:15;;;;;;;5.25;4.75;;;;;;;;;;1610715;30;21663;-61
2022/07/02 03:35:07;;;;;;;5.05;4.72;;;;;;;;;;1610316;30;21615;-58
2022/07/02 03:35:59;;;;;;;5.22;4.82;;;;;;;;;;1608946;30;22263;-59
2022/07/02 03:36:51;;;;;;;5.10;4.70;;;;;;;;;;1607073;30;22045;-60
2022/07/02 03:37:42;;;;;;;5.20;4.80;;;;;;;;;;1606306;30;21757;-60
2022/07/02 03:38:35;;;;;;;5.60;5.10;;;;;;;;;;1607827;30;23235;-59
2022/07/02 03:39:26;;;;;;;5.80;5.40;;;;;;;;;;1607820;30;21605;-60
2022/07/02 03:40:18;;;;;;;7.47;5.07;;;;;;;;;;1611058;30;21703;-59
2022/07/02 03:41:09;;;;;;;5.45;5.05;;;;;;;;;;1607989;30;21657;-59
2022/07/02 03:42:02;;;;;;;5.05;4.45;;;;;;;;;;1609011;30;21821;-59
2022/07/02 03:42:54;;;;;;;5.97;4.90;;;;;;;;;;1605149;30;21701;-60
2022/07/02 03:43:49;;;;;;;6.05;5.10;;;;;;;;;;1609039;30;21599;-60
2022/07/02 03:44:40;;;;;;;5.60;5.10;;;;;;;;;;1608955;30;21670;-59
2022/07/02 03:45:32;;;;;;;5.35;4.95;;;;;;;;;;1610987;30;21655;-59
2022/07/02 03:46:23;;;;;;;5.30;4.97;;;;;;;;;;1607384;30;21971;-58
2022/07/02 03:47:16;;;;;;;5.93;4.95;;;;;;;;;;1601769;30;21618;-59
2022/07/02 03:48:07;;;;;;;5.15;4.72;;;;;;;;;;1606486;30;22671;-58
2022/07/02 03:48:59;;;;;;;8.48;4.90;;;;;;;;;;1602562;30;22101;-59
2022/07/02 03:49:51;;;;;;;5.32;4.93;;;;;;;;;;1607860;30;21892;-61
2022/07/02 03:50:43;;;;;;;5.25;4.95;;;;;;;;;;1610886;30;21601;-59
2022/07/02 03:51:34;;;;;;;4.97;4.68;;;;;;;;;;1610185;30;22122;-59
2022/07/02 03:52:27;;;;;;;4.82;4.53;;;;;;;;;;1607488;30;21632;-59
2022/07/02 03:53:18;;;;;;;6.78;4.95;;;;;;;;;;1610691;30;21629;-59
2022/07/02 03:54:11;;;;;;;5.50;4.85;;;;;;;;;;1610446;30;21583;-60
2022/07/02 03:55:02;;;;;;;5.95;4.78;;;;;;;;;;1607838;30;21687;-59
2022/07/02 03:55:54;;;;;;;5.00;4.68;;;;;;;;;;1611716;30;22678;-60
2022/07/02 03:56:45;;;;;;;6.55;5.10;;;;;;;;;;1610371;30;21647;-59
2022/07/02 03:57:38;;;;;;;4.38;3.97;;;;;;;;;;1607913;30;21608;-60
2022/07/02 03:58:31;;;;;;;5.32;5.03;;;;;;;;;;1606465;30;21655;-59
2022/07/02 03:59:24;;;;;;;5.07;4.63;;;;;;;;;;1606620;30;21878;-60
2022/07/02 04:00:16;;;;;;;13.77;5.22;;;;;;;;;;1602017;30;21811;-60
2022/07/02 04:01:08;;;;;;;11.85;5.00;;;;;;;;;;1605152;30;22116;-60
2022/07/02 04:01:59;;;;;;;8.43;5.40;;;;;;;;;;1603762;30;21823;-60
2022/07/02 04:02:52;;;;;;;9.27;4.95;;;;;;;;;;1607687;30;21777;-59
2022/07/02 04:03:43;;;;;;;13.88;5.13;;;;;;;;;;1611659;30;22472;-59
2022/07/02 04:04:35;;;;;;;7.53;4.25;;;;;;;;;;1610126;30;21618;-59
2022/07/02 04:05:26;;;;;;;7.22;4.90;;;;;;;;;;1607974;30;21746;-59
2022/07/02 04:06:18;;;;;;;5.40;5.00;;;;;;;;;;1610958;30;22506;-59
2022/07/02 04:07:10;;;;;;;5.00;4.55;;;;;;;;;;1610976;30;21718;-60
2022/07/02 04:08:02;;;;;;;6.20;4.80;;;;;;;;;;1611137;30;21690;-59
2022/07/02 04:08:53;;;;;;;8.55;5.57;;;;;;;;;;1606672;30;21678;-60
2022/07/02 04:09:46;;;;;;;5.15;4.80;;;;;;;;;;1605451;30;21599;-60
2022/07/02 04:10:37;;;;;;;5.68;5.10;;;;;;;;;;1608561;30;21659;-58
2022/07/02 04:11:29;;;;;;;6.38;5.18;;;;;;;;;;1606577;30;21902;-58
2022/07/02 04:12:20;;;;;;;5.57;5.18;;;;;;;;;;1611019;30;21724;-59
2022/07/02 04:13:13;;;;;;;6.88;4.80;;;;;;;;;;1611035;30;21646;-59
2022/07/02 04:14:05;;;;;;;4.82;4.43;;;;;;;;;;1607347;30;22279;-58
2022/07/02 04:14:58;;;;;;;5.03;4.60;;;;;;;;;;1614931;30;21753;-58
2022/07/02 04:15:49;;;;;;;5.25;4.43;;;;;;;;;;1609725;30;21640;-59
2022/07/02 04:16:41;;;;;;;4.97;4.68;;;;;;;;;;1608906;30;21615;-60
2022/07/02 04:17:33;;;;;;;5.03;4.68;;;;;;;;;;1610447;30;21621;-59
2022/07/02 04:18:25;;;;;;;5.30;4.78;;;;;;;;;;1609612;30;21633;-59
2022/07/02 04:19:17;;;;;;;5.13;4.72;;;;;;;;;;1609330;30;22541;-59
2022/07/02 04:20:10;;;;;;;5.07;4.68;;;;;;;;;;1608630;30;21636;-59
2022/07/02 04:21:01;;;;;;;5.20;4.80;;;;;;;;;;1610744;30;22914;-58
2022/07/02 04:21:54;;;;;;;4.93;4.53;;;;;;;;;;1603557;30;22547;-59
2022/07/02 04:22:45;;;;;;;5.50;5.20;;;;;;;;;;1601258;30;21623;-58
2022/07/02 04:23:37;;;;;;;5.32;4.82;;;;;;;;;;1604674;30;21745;-61
2022/07/02 04:24:28;;;;;;;5.38;4.90;;;;;;;;;;1606936;30;21920;-58
2022/07/02 04:25:20;;;;;;;5.55;5.05;;;;;;;;;;1607501;30;21728;-58
2022/07/02 04:26:12;;;;;;;5.40;5.00;;;;;;;;;;1610865;30;21723;-59
2022/07/02 04:27:05;;;;;;;5.13;4.60;;;;;;;;;;1610148;30;21644;-60
2022/07/02 04:27:56;;;;;;;5.25;4.85;;;;;;;;;;1607772;30;21685;-60
2022/07/02 04:28:48;;;;;;;8.73;4.50;;;;;;;;;;1609705;30;21618;-60
2022/07/02 04:29:41;;;;;;;5.07;4.63;;;;;;;;;;1606476;30;21907;-60
2022/07/02 04:30:33;;;;;;;5.32;4.93;;;;;;;;;;1607823;30;21655;-58
2022/07/02 04:31:24;;;;;;;4.95;4.57;;;;;;;;;;1610868;30;21627;-59
2022/07/02 04:32:17;;;;;;;4.78;4.47;;;;;;;;;;1609575;30;22682;-59
2022/07/02 04:33:08;;;;;;;5.82;5.22;;;;;;;;;;1607701;30;21622;-59
2022/07/02 04:34:00;;;;;;;4.75;4.45;;;;;;;;;;1611684;30;22322;-60
2022/07/02 04:34:51;;;;;;;4.70;4.40;;;;;;;;;;1610159;30;21776;-59
2022/07/02 04:35:43;;;;;;;5.30;4.80;;;;;;;;;;1607505;30;21624;-60
2022/07/02 04:36:35;;;;;;;7.15;4.75;;;;;;;;;;1611745;30;21814;-59
2022/07/02 04:37:27;;;;;;;5.40;4.90;;;;;;;;;;1610421;30;21660;-59
2022/07/02 04:38:18;;;;;;;4.95;4.43;;;;;;;;;;1608643;30;21934;-58
2022/07/02 04:39:10;;;;;;;4.65;4.35;;;;;;;;;;1607913;30;21754;-58
2022/07/02 04:40:02;;;;;;;5.00;4.55;;;;;;;;;;1611025;30;22548;-59
2022/07/02 04:40:54;;;;;;;5.03;4.50;;;;;;;;;;1609070;30;21952;-58
2022/07/02 04:41:45;;;;;;;4.82;4.43;;;;;;;;;;1607726;30;22415;-59
2022/07/02 04:42:37;;;;;;;4.70;4.25;;;;;;;;;;1610999;30;22284;-59
2022/07/02 04:43:29;;;;;;;6.10;5.00;;;;;;;;;;1606557;30;21628;-59
2022/07/02 04:44:21;;;;;;;5.05;4.53;;;;;;;;;;1606998;30;21660;-59
2022/07/02 04:45:13;;;;;;;5.30;4.85;;;;;;;;;;1611331;30;22042;-59
2022/07/02 04:46:06;;;;;;;4.97;4.60;;;;;;;;;;1610144;30;21654;-61
2022/07/02 04:46:57;;;;;;;4.88;4.57;;;;;;;;;;1608104;30;21665;-59
2022/07/02 04:47:49;;;;;;;4.95;4.65;;;;;;;;;;1612753;30;21751;-59
2022/07/02 04:48:40;;;;;;;4.63;4.32;;;;;;;;;;1609072;30;21946;-60
2022/07/02 04:49:33;;;;;;;4.93;4.63;;;;;;;;;;1608733;30;21892;-59
2022/07/02 04:50:24;;;;;;;4.63;4.30;;;;;;;;;;1611614;30;21689;-61
2022/07/02 04:51:17;;;;;;;5.35;4.95;;;;;;;;;;1610666;30;22493;-60
2022/07/02 04:52:08;;;;;;;5.10;4.80;;;;;;;;;;1608450;30;21917;-59
2022/07/02 04:53:00;;;;;;;5.20;4.80;;;;;;;;;;1611951;30;21619;-59
2022/07/02 04:53:51;;;;;;;5.22;4.47;;;;;;;;;;1605363;30;22514;-59
2022/07/02 04:54:44;;;;;;;5.10;4.80;;;;;;;;;;1607782;30;21889;-61
2022/07/02 04:55:35;;;;;;;5.15;4.65;;;;;;;;;;1611668;30;22503;-57
2022/07/02 04:56:28;;;;;;;5.03;4.63;;;;;;;;;;1611823;30;22562;-59
2022/07/02 04:57:19;;;;;;;5.13;4.82;;;;;;;;;;1608440;30;22097;-60
2022/07/02 04:58:11;;;;;;;6.00;5.50;;;;;;;;;;1610837;30;22945;-58
2022/07/02 04:59:03;;;;;;;4.63;4.22;;;;;;;;;;1608502;30;21675;-58
2022/07/02 04:59:55;;;;;;;5.28;4.55;;;;;;;;;;1608961;30;22521;-59
2022/07/02 05:00:48;;;;;;;5.45;4.95;;;;;;;;;;1610050;30;21626;-59
2022/07/02 05:01:40;;;;;;;4.97;4.63;;;;;;;;;;1611865;30;21749;-59
2022/07/02 05:02:31;;;;;;;4.70;4.40;;;;;;;;;;1609868;30;22134;-59
2022/07/02 05:03:23;;;;;;;4.82;4.45;;;;;;;;;;1609784;30;21644;-61
2022/07/02 05:04:15;;;;;;;13.80;4.60;;;;;;;;;;1611722;30;22718;-58
2022/07/02 05:05:08;;;;;;;4.80;4.50;;;;;;;;;;1610755;30;21745;-59
2022/07/02 05:05:59;;;;;;;5.00;4.70;;;;;;;;;;1609751;30;22663;-58
2022/07/02 05:06:51;;;;;;;4.80;4.50;;;;;;;;;;1612050;30;22436;-60
2022/07/02 05:07:43;;;;;;;5.50;5.10;;;;;;;;;;1613177;30;22492;-60
2022/07/02 05:08:35;;;;;;;4.57;4.18;;;;;;;;;;1609298;30;21893;-60
2022/07/02 05:09:26;;;;;;;5.03;4.50;;;;;;;;;;1608350;30;21624;-60
2022/07/02 05:10:18;;;;;;;5.93;4.70;;;;;;;;;;1611462;30;21601;-60
2022/07/02 05:11:09;;;;;;;5.25;4.85;;;;;;;;;;1609060;30;21975;-59
2022/07/02 05:12:02;;;;;;;4.78;4.40;;;;;;;;;;1609578;30;21647;-60
2022/07/02 05:12:53;;;;;;;5.20;4.80;;;;;;;;;;1611741;30;22327;-59
2022/07/02 05:13:45;;;;;;;5.50;5.13;;;;;;;;;;1610749;30;22043;-60
2022/07/02 05:14:38;;;;;;;4.40;4.20;;;;;;;;;;1610798;30;22456;-60
2022/07/02 05:15:30;;;;;;;4.60;4.30;;;;;;;;;;1615209;30;21634;-60